createdAt,value
2023-03-14T00:02:06.408Z,11.40
2023-03-14T00:04:56.008Z,11.40
2023-03-14T00:07:44.051Z,11.40
2023-03-14T00:10:32.096Z,11.40
2023-03-14T00:13:21.531Z,11.40
2023-03-14T00:16:10.554Z,11.40
2023-03-14T00:19:00.243Z,11.40
2023-03-14T00:21:48.289Z,11.40
2023-03-14T00:24:36.382Z,11.40
2023-03-14T00:27:24.474Z,11.50
2023-03-14T00:30:14.173Z,11.50
2023-03-14T00:33:02.242Z,11.50
2023-03-14T00:35:57.438Z,11.50
2023-03-14T00:38:46.314Z,11.50
2023-03-14T00:41:34.438Z,11.50
2023-03-14T00:44:22.514Z,11.50
2023-03-14T00:47:11.943Z,11.50
2023-03-14T00:50:00.229Z,11.50
2023-03-14T00:52:49.807Z,11.50
2023-03-14T00:55:38.553Z,11.50
2023-03-14T00:58:26.639Z,11.50
2023-03-14T01:01:15.512Z,11.50
2023-03-14T01:04:04.941Z,11.40
2023-03-14T01:06:53.018Z,11.40
2023-03-14T01:09:41.120Z,11.30
2023-03-14T01:12:29.240Z,11.30
2023-03-14T01:15:17.353Z,11.30
2023-03-14T01:18:05.512Z,11.20
2023-03-14T01:20:54.942Z,11.20
2023-03-14T01:23:44.007Z,11.10
2023-03-14T01:26:33.285Z,11.10
2023-03-14T01:29:21.407Z,11.10
2023-03-14T01:32:09.491Z,11.00
2023-03-14T01:34:57.562Z,11.00
2023-03-14T01:37:46.940Z,11.00
2023-03-14T01:40:35.005Z,11.00
2023-03-14T01:43:25.359Z,11.10
2023-03-14T01:46:31.120Z,11.10
2023-03-14T01:49:22.359Z,11.10
2023-03-14T01:52:12.737Z,11.10
2023-03-14T01:55:04.986Z,11.10
2023-03-14T01:57:55.144Z,11.10
2023-03-14T02:00:43.282Z,11.10
2023-03-14T02:03:32.871Z,11.00
2023-03-14T02:06:22.415Z,11.00
2023-03-14T02:09:10.502Z,11.10
2023-03-14T02:12:00.112Z,11.00
2023-03-14T02:14:49.351Z,11.10
2023-03-14T02:17:39.873Z,11.00
2023-03-14T02:20:32.494Z,11.10
2023-03-14T02:23:26.415Z,11.10
2023-03-14T02:26:17.369Z,11.10
2023-03-14T02:29:06.921Z,11.10
2023-03-14T02:31:55.425Z,11.10
2023-03-14T02:34:44.874Z,11.20
2023-03-14T02:37:36.318Z,11.20
2023-03-14T02:40:24.506Z,11.20
2023-03-14T02:43:12.613Z,11.30
2023-03-14T02:46:02.755Z,11.30
2023-03-14T02:48:53.502Z,11.20
2023-03-14T02:51:42.210Z,11.10
2023-03-14T02:54:30.287Z,11.10
2023-03-14T02:57:18.305Z,11.00
2023-03-14T03:00:07.335Z,10.90
2023-03-14T03:02:56.798Z,10.80
2023-03-14T03:05:45.484Z,10.80
2023-03-14T03:08:33.591Z,10.80
2023-03-14T03:11:21.888Z,10.80
2023-03-14T03:14:09.948Z,10.70
2023-03-14T03:16:58.118Z,10.70
2023-03-14T03:19:47.561Z,10.70
2023-03-14T03:22:37.461Z,10.80
2023-03-14T03:25:25.536Z,10.90
2023-03-14T03:28:13.631Z,11.00
2023-03-14T03:31:08.059Z,11.00
2023-03-14T03:33:56.382Z,11.00
2023-03-14T03:36:45.798Z,11.00
2023-03-14T03:39:33.977Z,10.90
2023-03-14T03:42:22.067Z,10.90
2023-03-14T03:45:10.546Z,10.80
2023-03-14T03:47:58.651Z,10.80
2023-03-14T03:50:47.036Z,10.80
2023-03-14T03:53:36.472Z,10.80
2023-03-14T03:56:24.527Z,10.80
2023-03-14T03:59:12.731Z,10.80
2023-03-14T04:02:00.778Z,10.80
2023-03-14T04:04:49.043Z,10.80
2023-03-14T04:07:37.201Z,10.80
2023-03-14T04:10:26.602Z,10.80
2023-03-14T04:13:14.682Z,10.90
2023-03-14T04:16:02.812Z,10.80
2023-03-14T04:18:51.273Z,10.80
2023-03-14T04:21:41.605Z,10.80
2023-03-14T04:24:29.753Z,10.80
2023-03-14T04:27:19.134Z,10.80
2023-03-14T04:30:07.780Z,10.80
2023-03-14T04:32:55.864Z,10.80
2023-03-14T04:35:43.968Z,10.80
2023-03-14T04:38:32.221Z,10.80
2023-03-14T04:41:20.280Z,10.80
2023-03-14T04:44:09.691Z,10.80
2023-03-14T04:46:57.820Z,10.80
2023-03-14T04:49:45.928Z,10.90
2023-03-14T04:52:33.976Z,10.90
2023-03-14T04:55:24.341Z,10.90
2023-03-14T04:58:12.523Z,10.90
2023-03-14T05:01:05.595Z,10.90
2023-03-14T05:03:53.655Z,11.00
2023-03-14T05:06:43.315Z,11.00
2023-03-14T05:09:31.433Z,11.00
2023-03-14T05:12:19.531Z,11.00
2023-03-14T05:15:08.203Z,11.00
2023-03-14T05:17:57.638Z,11.10
2023-03-14T05:20:45.871Z,11.10
2023-03-14T05:23:33.980Z,11.10
2023-03-14T05:26:22.119Z,11.10
2023-03-14T05:29:10.207Z,11.10
2023-03-14T05:31:58.298Z,11.10
2023-03-14T05:34:47.822Z,11.10
2023-03-14T05:37:36.588Z,11.10
2023-03-14T05:40:24.681Z,11.10
2023-03-14T05:43:12.753Z,11.10
2023-03-14T05:46:00.882Z,11.10
2023-03-14T05:48:48.951Z,11.10
2023-03-14T05:51:38.417Z,11.00
2023-03-14T05:54:26.540Z,11.00
2023-03-14T05:57:14.757Z,10.90
2023-03-14T06:00:02.886Z,10.90
2023-03-14T06:02:50.994Z,11.00
2023-03-14T06:05:39.108Z,11.00
2023-03-14T06:08:29.100Z,11.00
2023-03-14T06:11:17.206Z,11.00
2023-03-14T06:14:05.288Z,11.00
2023-03-14T06:16:54.037Z,10.90
2023-03-14T06:19:42.136Z,11.00
2023-03-14T06:22:30.570Z,11.00
2023-03-14T06:25:20.152Z,11.10
2023-03-14T06:28:08.258Z,11.10
2023-03-14T06:30:56.342Z,11.10
2023-03-14T06:33:44.416Z,11.10
2023-03-14T06:36:32.524Z,11.10
2023-03-14T06:39:20.604Z,11.20
2023-03-14T06:42:10.672Z,11.20
2023-03-14T06:44:58.755Z,11.30
2023-03-14T06:47:46.829Z,11.30
2023-03-14T06:50:34.982Z,11.30
2023-03-14T06:53:23.085Z,11.30
2023-03-14T06:56:11.218Z,11.40
2023-03-14T06:59:00.641Z,11.40
2023-03-14T07:01:49.316Z,11.40
2023-03-14T07:04:37.472Z,11.50
2023-03-14T07:07:25.583Z,11.50
2023-03-14T07:10:13.673Z,11.50
2023-03-14T07:13:01.748Z,11.50
2023-03-14T07:15:51.214Z,11.50
2023-03-14T07:18:39.698Z,11.50
2023-03-14T07:21:27.794Z,11.50
2023-03-14T07:24:15.890Z,11.50
2023-03-14T07:27:04.008Z,11.50
2023-03-14T07:29:52.089Z,11.50
2023-03-14T07:32:41.650Z,11.50
2023-03-14T07:35:29.838Z,11.60
2023-03-14T07:38:18.133Z,11.60
2023-03-14T07:41:07.533Z,11.70
2023-03-14T07:43:55.608Z,11.70
2023-03-14T07:46:43.990Z,11.80
2023-03-14T07:49:33.433Z,11.90
2023-03-14T07:52:21.513Z,11.90
2023-03-14T07:55:10.053Z,12.00
2023-03-14T07:57:58.172Z,12.10
2023-03-14T08:00:46.300Z,12.20
2023-03-14T08:03:34.396Z,12.30
2023-03-14T08:06:23.909Z,12.40
2023-03-14T08:09:12.093Z,12.50
2023-03-14T08:12:00.225Z,12.60
2023-03-14T08:14:48.292Z,12.60
2023-03-14T08:17:36.372Z,12.70
2023-03-14T08:20:25.285Z,12.80
2023-03-14T08:23:14.807Z,12.80
2023-03-14T08:26:03.150Z,13.00
2023-03-14T08:28:51.227Z,13.10
2023-03-14T08:31:39.408Z,13.20
2023-03-14T08:34:27.624Z,13.40
2023-03-14T08:37:25.804Z,13.40
2023-03-14T08:40:18.022Z,13.40
2023-03-14T08:43:06.237Z,13.50
2023-03-14T08:45:54.455Z,13.50
2023-03-14T08:48:42.571Z,13.50
2023-03-14T08:51:30.730Z,13.60
2023-03-14T08:54:19.780Z,13.60
2023-03-14T08:57:09.158Z,13.60
2023-03-14T08:59:57.541Z,13.70
2023-03-14T09:02:45.671Z,13.70
2023-03-14T09:05:34.677Z,13.80
2023-03-14T09:08:22.764Z,13.90
2023-03-14T09:11:11.149Z,14.00
2023-03-14T09:14:00.719Z,14.10
2023-03-14T09:16:48.834Z,14.10
2023-03-14T09:19:37.107Z,14.10
2023-03-14T09:22:25.191Z,14.20
2023-03-14T09:25:13.246Z,14.20
2023-03-14T09:28:01.316Z,14.20
2023-03-14T09:30:50.977Z,14.30
2023-03-14T09:33:39.149Z,14.40
2023-03-14T09:36:27.340Z,14.40
2023-03-14T09:39:15.400Z,14.40
2023-03-14T09:42:05.957Z,14.40
2023-03-14T09:44:56.315Z,14.50
2023-03-14T09:47:58.191Z,14.30
2023-03-14T09:50:50.807Z,14.10
2023-03-14T09:53:41.676Z,14.20
2023-03-14T09:56:31.636Z,14.20
2023-03-14T09:59:19.782Z,14.30
2023-03-14T10:02:15.928Z,14.30
2023-03-14T10:05:07.782Z,14.30
2023-03-14T10:07:55.977Z,14.20
2023-03-14T10:10:44.091Z,14.20
2023-03-14T10:13:32.227Z,14.20
2023-03-14T10:16:30.128Z,14.10
2023-03-14T10:19:19.228Z,14.10
2023-03-14T10:22:15.447Z,14.00
2023-03-14T10:25:04.847Z,13.90
2023-03-14T10:27:52.931Z,14.00
2023-03-14T10:30:45.286Z,14.20
2023-03-14T10:33:34.532Z,14.20
2023-03-14T10:36:23.910Z,14.20
2023-03-14T10:39:24.890Z,14.10
2023-03-14T10:42:19.011Z,14.10
2023-03-14T10:45:08.985Z,14.10
2023-03-14T10:47:59.901Z,14.20
2023-03-14T10:50:54.961Z,14.20
2023-03-14T10:53:44.062Z,14.40
2023-03-14T10:56:37.381Z,14.20
2023-03-14T10:59:25.739Z,14.00
2023-03-14T11:02:22.804Z,14.00
2023-03-14T11:05:16.661Z,13.90
2023-03-14T11:08:09.587Z,13.80
2023-03-14T11:11:01.503Z,13.80
2023-03-14T11:13:54.252Z,13.80
2023-03-14T11:16:48.748Z,13.80
2023-03-14T11:19:44.242Z,13.90
2023-03-14T11:22:38.433Z,14.00
2023-03-14T11:25:29.053Z,14.10
2023-03-14T11:28:20.045Z,14.20
2023-03-14T11:31:16.217Z,14.40
2023-03-14T11:34:09.552Z,14.50
2023-03-14T11:37:00.200Z,14.40
2023-03-14T11:39:53.908Z,14.50
2023-03-14T11:42:44.331Z,14.50
2023-03-14T11:45:34.715Z,14.50
2023-03-14T11:48:29.241Z,14.60
2023-03-14T11:51:23.393Z,14.80
2023-03-14T11:54:16.420Z,15.00
2023-03-14T11:57:06.121Z,14.90
2023-03-14T11:59:57.274Z,15.10
2023-03-14T12:02:49.871Z,15.40
2023-03-14T12:05:42.802Z,15.40
2023-03-14T12:08:45.781Z,15.30
2023-03-14T12:11:36.686Z,15.30
2023-03-14T12:14:26.825Z,15.20
2023-03-14T12:17:21.268Z,15.20
2023-03-14T12:20:18.533Z,15.30
2023-03-14T12:23:08.712Z,15.60
2023-03-14T12:26:10.011Z,15.70
2023-03-14T12:29:11.870Z,15.80
2023-03-14T12:32:10.219Z,15.70
2023-03-14T12:34:58.517Z,15.40
2023-03-14T12:37:47.218Z,15.20
2023-03-14T12:40:39.822Z,15.70
2023-03-14T12:43:29.048Z,15.90
2023-03-14T12:46:22.117Z,15.80
2023-03-14T12:49:10.588Z,15.60
2023-03-14T12:52:01.144Z,15.50
2023-03-14T12:54:50.551Z,15.30
2023-03-14T12:57:42.504Z,15.20
2023-03-14T13:00:32.382Z,15.30
2023-03-14T13:03:23.293Z,15.10
2023-03-14T13:06:12.255Z,14.90
2023-03-14T13:09:00.429Z,14.50
2023-03-14T13:11:48.504Z,14.20
2023-03-14T13:14:39.100Z,14.00
2023-03-14T13:17:35.586Z,13.80
2023-03-14T13:20:28.621Z,13.50
2023-03-14T13:23:23.134Z,13.20
2023-03-14T13:26:13.468Z,13.10
2023-03-14T13:29:01.547Z,13.10
2023-03-14T13:31:51.890Z,13.20
2023-03-14T13:34:40.020Z,13.20
2023-03-14T13:37:28.539Z,12.90
2023-03-14T13:40:26.120Z,12.00
2023-03-14T13:43:16.967Z,10.50
2023-03-14T13:46:06.502Z,9.50
2023-03-14T13:48:57.766Z,8.90
2023-03-14T13:51:45.816Z,8.50
2023-03-14T13:54:34.177Z,8.20
2023-03-14T13:57:22.259Z,8.10
2023-03-14T14:00:19.322Z,8.00
2023-03-14T14:03:12.430Z,7.90
2023-03-14T14:06:02.108Z,7.80
2023-03-14T14:08:50.356Z,7.80
2023-03-14T14:11:48.490Z,7.70
2023-03-14T14:14:42.626Z,7.70
2023-03-14T14:17:33.238Z,7.50
2023-03-14T14:20:25.706Z,7.20
2023-03-14T14:23:17.105Z,7.00
2023-03-14T14:26:09.099Z,6.80
2023-03-14T14:29:01.299Z,6.60
2023-03-14T14:31:51.218Z,6.40
2023-03-14T14:34:40.872Z,6.00
2023-03-14T14:37:29.874Z,5.90
2023-03-14T14:40:21.461Z,5.80
2023-03-14T14:43:09.520Z,5.70
2023-03-14T14:45:59.153Z,5.60
2023-03-14T14:48:50.217Z,5.40
2023-03-14T14:51:41.870Z,5.40
2023-03-14T14:54:35.428Z,5.40
2023-03-14T14:57:26.058Z,5.30
2023-03-14T15:00:19.833Z,5.30
2023-03-14T15:03:14.608Z,5.30
2023-03-14T15:06:03.570Z,5.20
2023-03-14T15:08:51.678Z,5.10
2023-03-14T15:11:39.760Z,5.10
2023-03-14T15:14:29.189Z,5.00
2023-03-14T15:17:17.344Z,4.90
2023-03-14T15:20:06.219Z,4.70
2023-03-14T15:22:54.567Z,4.60
2023-03-14T15:25:54.877Z,4.60
2023-03-14T15:28:43.778Z,4.70
2023-03-14T15:31:33.321Z,4.70
2023-03-14T15:34:21.450Z,4.60
2023-03-14T15:37:11.513Z,4.70
2023-03-14T15:39:59.861Z,4.70
2023-03-14T15:42:47.918Z,4.70
2023-03-14T15:45:36.371Z,4.70
2023-03-14T15:48:25.845Z,4.70
2023-03-14T15:51:14.340Z,4.70
2023-03-14T15:54:02.444Z,4.60
2023-03-14T15:56:50.572Z,4.60
2023-03-14T15:59:38.774Z,4.60
2023-03-14T16:02:26.902Z,4.60
2023-03-14T16:05:16.471Z,4.60
2023-03-14T16:08:05.543Z,4.70
2023-03-14T16:10:53.759Z,4.70
2023-03-14T16:13:42.097Z,4.70
2023-03-14T16:16:30.272Z,4.70
2023-03-14T16:19:18.405Z,4.70
2023-03-14T16:22:08.012Z,4.70
2023-03-14T16:24:56.103Z,4.70
2023-03-14T16:27:44.177Z,4.70
2023-03-14T16:30:32.277Z,4.80
2023-03-14T16:33:20.682Z,4.80
2023-03-14T16:36:09.792Z,4.80
2023-03-14T16:38:59.222Z,4.90
2023-03-14T16:41:47.443Z,4.90
2023-03-14T16:44:35.526Z,4.90
2023-03-14T16:47:23.620Z,5.00
2023-03-14T16:50:11.852Z,5.00
2023-03-14T16:52:59.997Z,5.00
2023-03-14T16:55:50.448Z,5.00
2023-03-14T16:58:38.817Z,4.90
2023-03-14T17:01:27.003Z,4.90
2023-03-14T17:04:15.195Z,4.80
2023-03-14T17:07:03.593Z,4.80
2023-03-14T17:09:51.800Z,4.90
2023-03-14T17:12:41.225Z,4.80
2023-03-14T17:15:29.470Z,4.90
2023-03-14T17:18:17.661Z,4.80
2023-03-14T17:21:06.226Z,4.90
2023-03-14T17:23:54.325Z,4.90
2023-03-14T17:26:42.439Z,4.90
2023-03-14T17:29:31.854Z,4.80
2023-03-14T17:32:20.154Z,4.80
2023-03-14T17:35:08.518Z,4.80
2023-03-14T17:37:56.720Z,4.80
2023-03-14T17:40:47.803Z,4.80
2023-03-14T17:43:35.916Z,4.80
2023-03-14T17:46:26.610Z,4.80
2023-03-14T17:49:14.736Z,4.80
2023-03-14T17:52:02.839Z,4.80
2023-03-14T17:54:51.002Z,4.80
2023-03-14T17:57:39.656Z,4.80
2023-03-14T18:00:27.966Z,4.70
2023-03-14T18:03:17.388Z,4.70
2023-03-14T18:06:06.067Z,4.70
2023-03-14T18:08:55.421Z,4.60
2023-03-14T18:11:43.525Z,4.60
2023-03-14T18:14:31.810Z,4.60
2023-03-14T18:17:19.888Z,4.60
2023-03-14T18:20:12.697Z,4.60
2023-03-14T18:23:01.968Z,4.50
2023-03-14T18:25:50.456Z,4.60
2023-03-14T18:28:38.558Z,4.50
2023-03-14T18:31:26.728Z,4.50
2023-03-14T18:34:14.886Z,4.60
2023-03-14T18:37:04.327Z,4.60
2023-03-14T18:39:52.492Z,4.50
2023-03-14T18:42:40.840Z,4.50
2023-03-14T18:45:28.953Z,4.50
2023-03-14T18:48:17.025Z,4.40
2023-03-14T18:51:05.396Z,4.40
2023-03-14T18:54:02.797Z,4.40
2023-03-14T18:56:56.296Z,4.40
2023-03-14T18:59:44.366Z,4.40
2023-03-14T19:02:32.523Z,4.40
2023-03-14T19:05:20.968Z,4.40
2023-03-14T19:08:09.022Z,4.30
2023-03-14T19:11:01.097Z,4.30
2023-03-14T19:13:49.630Z,4.30
2023-03-14T19:16:37.841Z,4.20
2023-03-14T19:19:25.949Z,4.20
2023-03-14T19:22:14.906Z,4.10
2023-03-14T19:25:04.027Z,4.10
2023-03-14T19:27:53.461Z,4.10
2023-03-14T19:30:41.891Z,4.00
2023-03-14T19:33:30.779Z,4.00
2023-03-14T19:36:22.607Z,4.00
2023-03-14T19:39:10.697Z,4.00
2023-03-14T19:41:59.538Z,3.90
2023-03-14T19:44:49.001Z,3.80
2023-03-14T19:47:37.438Z,3.70
2023-03-14T19:50:26.682Z,3.60
2023-03-14T19:53:14.782Z,3.60
2023-03-14T19:56:02.910Z,3.50
2023-03-14T19:58:52.266Z,3.60
2023-03-14T20:01:41.941Z,3.50
2023-03-14T20:04:30.169Z,3.50
2023-03-14T20:07:18.225Z,3.50
2023-03-14T20:10:06.843Z,3.40
2023-03-14T20:12:54.933Z,3.40
2023-03-14T20:15:43.461Z,3.40
2023-03-14T20:18:33.116Z,3.40
2023-03-14T20:21:21.166Z,3.30
2023-03-14T20:24:09.516Z,3.30
2023-03-14T20:26:57.576Z,3.20
2023-03-14T20:29:45.678Z,3.10
2023-03-14T20:32:33.803Z,3.10
2023-03-14T20:35:24.455Z,3.00
2023-03-14T20:38:12.502Z,3.00
2023-03-14T20:41:00.903Z,3.00
2023-03-14T20:43:48.961Z,3.00
2023-03-14T20:46:37.099Z,3.10
2023-03-14T20:49:25.273Z,3.10
2023-03-14T20:52:15.510Z,3.10
2023-03-14T20:55:03.665Z,3.10
2023-03-14T20:57:51.988Z,3.10
2023-03-14T21:00:40.319Z,3.10
2023-03-14T21:03:28.980Z,3.20
2023-03-14T21:06:17.063Z,3.20
2023-03-14T21:09:06.857Z,3.20
2023-03-14T21:11:54.979Z,3.20
2023-03-14T21:14:43.155Z,3.20
2023-03-14T21:17:31.226Z,3.20
2023-03-14T21:20:19.307Z,3.30
2023-03-14T21:23:07.883Z,3.30
2023-03-14T21:25:57.653Z,3.30
2023-03-14T21:28:45.914Z,3.30
2023-03-14T21:31:34.382Z,3.30
2023-03-14T21:34:26.642Z,3.20
2023-03-14T21:37:14.757Z,3.20
2023-03-14T21:40:03.894Z,3.20
2023-03-14T21:42:54.395Z,3.10
2023-03-14T21:45:42.507Z,3.10
2023-03-14T21:48:30.574Z,3.10
2023-03-14T21:51:18.773Z,3.00
2023-03-14T21:54:10.304Z,2.90
2023-03-14T21:56:59.623Z,2.90
2023-03-14T21:59:49.106Z,2.90
2023-03-14T22:02:37.145Z,2.90
2023-03-14T22:05:25.269Z,2.90
2023-03-14T22:08:13.661Z,2.90
2023-03-14T22:11:01.765Z,2.90
2023-03-14T22:13:49.899Z,2.90
2023-03-14T22:16:39.396Z,2.90
2023-03-14T22:19:27.882Z,2.90
2023-03-14T22:22:16.077Z,2.90
2023-03-14T22:25:04.526Z,2.90
2023-03-14T22:27:52.587Z,2.80
2023-03-14T22:30:40.673Z,2.80
2023-03-14T22:33:31.374Z,2.80
2023-03-14T22:36:19.566Z,2.80
2023-03-14T22:39:07.730Z,2.80
2023-03-14T22:41:56.077Z,2.80
2023-03-14T22:44:44.146Z,2.80
2023-03-14T22:47:32.265Z,2.80
2023-03-14T22:50:21.731Z,2.80
2023-03-14T22:53:09.814Z,2.90
2023-03-14T22:55:58.443Z,2.90
2023-03-14T22:58:46.752Z,2.90
2023-03-14T23:01:34.796Z,2.80
2023-03-14T23:04:22.885Z,2.80
2023-03-14T23:07:12.523Z,2.80
2023-03-14T23:10:00.598Z,2.80
2023-03-14T23:12:48.696Z,2.80
2023-03-14T23:15:36.771Z,2.80
2023-03-14T23:18:27.761Z,2.80
2023-03-14T23:21:17.167Z,2.80
2023-03-14T23:24:07.035Z,2.80
2023-03-14T23:26:55.085Z,2.80
2023-03-14T23:29:43.187Z,2.80
2023-03-14T23:32:32.056Z,2.80
2023-03-14T23:35:20.157Z,2.80
2023-03-14T23:38:08.271Z,2.70
2023-03-14T23:40:57.881Z,2.70
2023-03-14T23:43:46.501Z,2.70
2023-03-14T23:46:34.582Z,2.60
2023-03-14T23:49:22.982Z,2.60
2023-03-14T23:52:11.063Z,2.60
2023-03-14T23:54:59.066Z,2.60
2023-03-14T23:57:48.419Z,2.60
